createdAt,value
2022-12-31T00:00:17.060Z,100553.84
2022-12-31T00:02:44.832Z,100556.16
2022-12-31T00:05:12.314Z,100553.38
2022-12-31T00:10:06.736Z,100554.06
2022-12-31T00:12:34.155Z,100556.84
2022-12-31T00:15:03.880Z,100563.31
2022-12-31T00:17:31.782Z,100563.69
2022-12-31T00:19:59.163Z,100569.56
2022-12-31T00:22:26.604Z,100571.84
2022-12-31T00:24:54.289Z,100580.63
2022-12-31T00:27:22.414Z,100581.56
2022-12-31T00:29:49.828Z,100588.44
2022-12-31T00:32:17.647Z,100580.41
2022-12-31T00:34:45.016Z,100586.81
2022-12-31T00:37:12.384Z,100591.62
2022-12-31T00:39:40.030Z,100592.41
2022-12-31T00:42:07.562Z,100580.91
2022-12-31T00:44:34.922Z,100583.13
2022-12-31T00:47:02.613Z,100583.69
2022-12-31T00:49:30.030Z,100586.88
2022-12-31T00:51:57.893Z,100601.97
2022-12-31T00:54:25.568Z,100604.03
2022-12-31T00:56:52.971Z,100601.84
2022-12-31T00:59:20.565Z,100609.28
2022-12-31T01:01:50.073Z,100604.94
2022-12-31T01:04:20.276Z,100606.09
2022-12-31T01:06:48.463Z,100601.91
2022-12-31T01:09:17.258Z,100604.13
2022-12-31T01:11:45.420Z,100601.88
2022-12-31T01:14:16.399Z,100597.06
2022-12-31T01:16:49.419Z,100596.25
2022-12-31T01:19:22.997Z,100603.37
2022-12-31T01:21:51.299Z,100607.63
2022-12-31T01:24:19.671Z,100604.28
2022-12-31T01:26:47.527Z,100607.84
2022-12-31T01:29:16.953Z,100603.06
2022-12-31T01:31:44.676Z,100605.50
2022-12-31T01:34:12.058Z,100601.47
2022-12-31T01:36:39.541Z,100613.94
2022-12-31T01:39:08.686Z,100626.59
2022-12-31T01:41:39.564Z,100623.03
2022-12-31T01:44:13.235Z,100627.22
2022-12-31T01:46:52.700Z,100618.00
2022-12-31T01:49:42.209Z,100623.03
2022-12-31T01:52:17.794Z,100604.69
2022-12-31T01:54:50.569Z,100618.72
2022-12-31T01:57:18.480Z,100613.59
2022-12-31T01:59:46.480Z,100610.16
2022-12-31T02:02:14.632Z,100606.31
2022-12-31T02:04:42.487Z,100601.91
2022-12-31T02:07:10.459Z,100613.34
2022-12-31T02:09:39.963Z,100621.38
2022-12-31T02:12:09.053Z,100620.13
2022-12-31T02:14:45.097Z,100619.50
2022-12-31T02:17:31.495Z,100629.19
2022-12-31T02:20:16.214Z,100629.38
2022-12-31T02:23:12.873Z,100624.44
2022-12-31T02:26:11.127Z,100625.53
2022-12-31T02:28:53.914Z,100623.56
2022-12-31T02:31:37.419Z,100613.91
2022-12-31T02:34:21.061Z,100616.91
2022-12-31T02:36:50.805Z,100618.34
2022-12-31T02:39:18.633Z,100632.31
2022-12-31T02:41:50.409Z,100634.91
2022-12-31T02:44:26.684Z,100636.22
2022-12-31T02:47:16.778Z,100631.19
2022-12-31T02:50:03.027Z,100629.06
2022-12-31T02:52:48.952Z,100620.91
2022-12-31T02:55:35.317Z,100628.97
2022-12-31T02:58:08.576Z,100618.16
2022-12-31T03:01:00.475Z,100614.59
2022-12-31T03:03:28.638Z,100611.88
2022-12-31T03:05:57.057Z,100612.88
2022-12-31T03:08:25.961Z,100604.25
2022-12-31T03:10:53.411Z,100604.00
2022-12-31T03:13:21.093Z,100618.75
2022-12-31T03:15:48.593Z,100611.22
2022-12-31T03:18:17.815Z,100604.72
2022-12-31T03:21:09.449Z,100610.44
2022-12-31T03:23:39.673Z,100619.63
2022-12-31T03:26:11.052Z,100603.19
2022-12-31T03:28:40.201Z,100598.94
2022-12-31T03:31:08.622Z,100605.22
2022-12-31T03:33:38.982Z,100602.09
2022-12-31T03:36:14.612Z,100602.53
2022-12-31T03:38:42.570Z,100598.25
2022-12-31T03:41:11.022Z,100605.59
2022-12-31T03:43:38.564Z,100611.28
2022-12-31T03:46:06.543Z,100611.03
2022-12-31T03:48:34.060Z,100613.87
2022-12-31T03:51:01.448Z,100605.34
2022-12-31T03:53:29.133Z,100609.69
2022-12-31T03:55:56.564Z,100595.16
2022-12-31T03:58:23.976Z,100609.13
2022-12-31T04:00:51.697Z,100594.97
2022-12-31T04:03:19.488Z,100597.13
2022-12-31T04:05:53.386Z,100596.44
2022-12-31T04:08:21.072Z,100597.00
2022-12-31T04:10:48.445Z,100597.03
2022-12-31T04:13:16.859Z,100594.09
2022-12-31T04:15:44.537Z,100597.13
2022-12-31T04:18:12.620Z,100588.34
2022-12-31T04:20:40.328Z,100608.28
2022-12-31T04:23:08.021Z,100612.81
2022-12-31T04:25:35.399Z,100627.63
2022-12-31T04:28:02.797Z,100631.78
2022-12-31T04:30:30.506Z,100625.12
2022-12-31T04:32:57.897Z,100626.78
2022-12-31T04:35:25.278Z,100630.81
2022-12-31T04:37:52.998Z,100619.66
2022-12-31T04:40:20.370Z,100626.78
2022-12-31T04:42:47.752Z,100633.97
2022-12-31T04:45:15.406Z,100643.03
2022-12-31T04:47:43.438Z,100645.62
2022-12-31T04:50:11.670Z,100640.91
2022-12-31T04:52:42.887Z,100642.84
2022-12-31T04:55:11.020Z,100646.72
2022-12-31T04:57:39.049Z,100655.06
2022-12-31T05:00:08.009Z,100658.84
2022-12-31T05:02:35.702Z,100659.28
2022-12-31T05:05:03.581Z,100658.78
2022-12-31T05:07:30.960Z,100666.28
2022-12-31T05:09:58.374Z,100681.09
2022-12-31T05:12:26.372Z,100684.25
2022-12-31T05:14:53.865Z,100683.75
2022-12-31T05:17:21.495Z,100684.91
2022-12-31T05:19:49.187Z,100688.59
2022-12-31T05:22:31.869Z,100687.34
2022-12-31T05:25:00.489Z,100693.41
2022-12-31T05:27:31.207Z,100682.62
2022-12-31T05:29:59.756Z,100682.91
2022-12-31T05:32:27.566Z,100695.84
2022-12-31T05:34:54.950Z,100697.53
2022-12-31T05:37:22.446Z,100703.69
2022-12-31T05:39:50.135Z,100698.78
2022-12-31T05:42:17.631Z,100713.62
2022-12-31T05:44:45.044Z,100721.03
2022-12-31T05:47:12.877Z,100717.97
2022-12-31T05:49:40.383Z,100718.84
2022-12-31T05:52:07.935Z,100728.56
2022-12-31T05:54:36.618Z,100723.22
2022-12-31T05:57:05.375Z,100729.59
2022-12-31T05:59:33.141Z,100741.09
2022-12-31T06:02:01.120Z,100727.72
2022-12-31T06:04:28.783Z,100727.94
2022-12-31T06:06:56.289Z,100731.56
2022-12-31T06:09:23.917Z,100725.37
2022-12-31T06:11:52.042Z,100734.50
2022-12-31T06:14:19.447Z,100742.72
2022-12-31T06:16:46.895Z,100744.00
2022-12-31T06:19:14.621Z,100743.66
2022-12-31T06:21:42.039Z,100729.81
2022-12-31T06:24:09.465Z,100726.81
2022-12-31T06:26:37.175Z,100733.25
2022-12-31T06:29:04.586Z,100732.84
2022-12-31T06:31:32.537Z,100726.47
2022-12-31T06:34:00.501Z,100733.31
2022-12-31T06:36:28.055Z,100740.53
2022-12-31T06:38:55.555Z,100738.22
2022-12-31T06:41:23.277Z,100747.22
2022-12-31T06:43:50.693Z,100740.00
2022-12-31T06:46:18.633Z,100739.81
2022-12-31T06:48:46.320Z,100745.44
2022-12-31T06:51:17.802Z,100746.59
2022-12-31T06:53:46.980Z,100741.06
2022-12-31T06:56:32.993Z,100742.81
2022-12-31T06:59:02.420Z,100742.28
2022-12-31T07:01:54.111Z,100745.91
2022-12-31T07:04:49.704Z,100755.53
2022-12-31T07:07:54.080Z,100751.56
2022-12-31T07:10:36.370Z,100754.25
2022-12-31T07:13:03.702Z,100757.03
2022-12-31T07:15:53.425Z,100759.97
2022-12-31T07:18:46.588Z,100754.47
2022-12-31T07:21:16.702Z,100766.41
2022-12-31T07:23:44.322Z,100772.22
2022-12-31T07:26:20.549Z,100779.72
2022-12-31T07:28:51.218Z,100773.50
2022-12-31T07:31:57.726Z,100770.34
2022-12-31T07:34:46.483Z,100764.00
2022-12-31T07:37:30.753Z,100759.84
2022-12-31T07:40:10.554Z,100772.78
2022-12-31T07:42:50.283Z,100771.88
2022-12-31T07:45:23.532Z,100780.63
2022-12-31T07:47:51.450Z,100775.34
2022-12-31T07:50:19.635Z,100783.38
2022-12-31T07:52:47.425Z,100776.50
2022-12-31T07:55:14.972Z,100789.31
2022-12-31T07:57:53.650Z,100786.16
2022-12-31T08:00:21.397Z,100773.50
2022-12-31T08:03:03.897Z,100792.75
2022-12-31T08:05:51.200Z,100796.37
2022-12-31T08:08:25.037Z,100805.41
2022-12-31T08:11:20.131Z,100822.34
2022-12-31T08:13:47.906Z,100833.91
2022-12-31T08:16:15.582Z,100815.78
2022-12-31T08:18:43.154Z,100809.00
2022-12-31T08:21:14.295Z,100819.53
2022-12-31T08:23:51.879Z,100829.19
2022-12-31T08:26:55.243Z,100832.78
2022-12-31T08:29:32.504Z,100831.22
2022-12-31T08:32:26.235Z,100847.44
2022-12-31T08:34:56.641Z,100857.16
2022-12-31T08:37:37.848Z,100874.13
2022-12-31T08:40:22.926Z,100872.81
2022-12-31T08:42:56.649Z,100883.06
2022-12-31T08:45:37.889Z,100889.44
2022-12-31T08:48:24.600Z,100886.94
2022-12-31T08:50:52.416Z,100877.56
2022-12-31T08:53:20.753Z,100869.66
2022-12-31T08:55:50.231Z,100870.44
2022-12-31T08:58:36.300Z,100882.56
2022-12-31T09:01:04.716Z,100899.62
2022-12-31T09:04:15.383Z,100890.87
2022-12-31T09:06:49.348Z,100894.31
2022-12-31T09:09:47.281Z,100903.19
2022-12-31T09:12:29.083Z,100895.22
2022-12-31T09:15:15.795Z,100881.44
2022-12-31T09:17:48.685Z,100888.75
2022-12-31T09:20:42.333Z,100876.09
2022-12-31T09:23:12.584Z,100862.34
2022-12-31T09:26:17.391Z,100854.56
2022-12-31T09:29:01.829Z,100852.53
2022-12-31T09:31:38.755Z,100842.94
2022-12-31T09:34:19.732Z,100835.28
2022-12-31T09:36:51.237Z,100841.13
2022-12-31T09:39:48.384Z,100845.59
2022-12-31T09:42:43.921Z,100841.84
2022-12-31T09:45:59.530Z,100834.22
2022-12-31T09:48:40.812Z,100835.69
2022-12-31T09:51:25.581Z,100835.25
2022-12-31T09:54:15.562Z,100829.50
2022-12-31T09:56:57.161Z,100835.53
2022-12-31T09:59:57.305Z,100816.28
2022-12-31T10:02:43.727Z,100809.81
2022-12-31T10:05:26.528Z,100817.19
2022-12-31T10:08:00.307Z,100807.63
2022-12-31T10:10:40.094Z,100814.59
2022-12-31T10:13:28.863Z,100826.06
2022-12-31T10:16:16.042Z,100830.81
2022-12-31T10:19:13.811Z,100831.09
2022-12-31T10:22:00.005Z,100818.38
2022-12-31T10:24:50.993Z,100813.16
2022-12-31T10:27:36.904Z,100815.78
2022-12-31T10:30:15.502Z,100825.94
2022-12-31T10:32:44.741Z,100826.53
2022-12-31T10:35:43.777Z,100818.69
2022-12-31T10:38:22.828Z,100802.38
2022-12-31T10:41:08.554Z,100798.59
2022-12-31T10:44:04.490Z,100794.78
2022-12-31T10:46:50.646Z,100811.34
2022-12-31T10:49:39.244Z,100804.25
2022-12-31T10:52:42.391Z,100806.16
2022-12-31T10:55:10.027Z,100824.25
2022-12-31T10:58:01.887Z,100818.22
2022-12-31T11:00:38.514Z,100821.03
2022-12-31T11:03:40.284Z,100828.31
2022-12-31T11:07:03.385Z,100802.72
2022-12-31T11:09:52.363Z,100802.91
2022-12-31T11:12:51.349Z,100801.19
2022-12-31T11:15:22.068Z,100808.25
2022-12-31T11:17:52.713Z,100811.00
2022-12-31T11:20:38.532Z,100800.09
2022-12-31T11:23:34.062Z,100794.25
2022-12-31T11:26:18.278Z,100790.53
2022-12-31T11:28:50.662Z,100786.78
2022-12-31T11:31:58.261Z,100778.09
2022-12-31T11:34:48.275Z,100783.88
2022-12-31T11:37:42.117Z,100780.56
2022-12-31T11:40:28.420Z,100779.47
2022-12-31T11:43:21.713Z,100769.50
2022-12-31T11:46:13.619Z,100772.59
2022-12-31T11:49:12.572Z,100765.84
2022-12-31T11:52:05.302Z,100759.06
2022-12-31T11:54:41.466Z,100753.28
2022-12-31T11:57:09.224Z,100774.69
2022-12-31T11:59:36.981Z,100771.00
2022-12-31T12:02:29.744Z,100790.44
2022-12-31T12:05:06.541Z,100800.28
2022-12-31T12:07:37.994Z,100800.59
2022-12-31T12:10:31.947Z,100788.53
2022-12-31T12:13:11.651Z,100796.31
2022-12-31T12:15:40.420Z,100794.41
2022-12-31T12:18:24.670Z,100790.84
2022-12-31T12:20:52.959Z,100784.22
2022-12-31T12:23:25.516Z,100783.81
2022-12-31T12:25:53.284Z,100785.78
2022-12-31T12:28:26.611Z,100787.59
2022-12-31T12:31:04.100Z,100790.69
2022-12-31T12:33:42.522Z,100787.72
2022-12-31T12:36:13.936Z,100788.78
2022-12-31T12:38:42.327Z,100781.53
2022-12-31T12:41:18.702Z,100780.34
2022-12-31T12:43:46.108Z,100785.22
2022-12-31T12:46:33.685Z,100781.28
2022-12-31T12:49:02.686Z,100772.66
2022-12-31T12:51:51.798Z,100765.75
2022-12-31T12:54:54.151Z,100768.84
2022-12-31T12:57:29.757Z,100771.16
2022-12-31T13:00:08.980Z,100777.81
2022-12-31T13:03:11.980Z,100776.00
2022-12-31T13:06:03.272Z,100778.28
2022-12-31T13:08:35.569Z,100765.19
2022-12-31T13:11:02.871Z,100770.44
2022-12-31T13:14:10.715Z,100776.59
2022-12-31T13:16:53.697Z,100781.38
2022-12-31T13:19:34.380Z,100780.25
2022-12-31T13:22:19.260Z,100773.47
2022-12-31T13:25:07.643Z,100784.31
2022-12-31T13:27:38.762Z,100781.59
2022-12-31T13:30:19.823Z,100783.13
2022-12-31T13:32:52.432Z,100797.31
2022-12-31T13:35:37.550Z,100800.28
2022-12-31T13:38:11.703Z,100780.28
2022-12-31T13:40:51.466Z,100774.78
2022-12-31T13:43:54.662Z,100790.78
2022-12-31T13:46:28.079Z,100798.56
2022-12-31T13:49:01.859Z,100796.25
2022-12-31T13:51:29.234Z,100791.50
2022-12-31T13:54:01.938Z,100791.50
2022-12-31T13:56:33.796Z,100785.19
2022-12-31T13:59:15.025Z,100807.88
2022-12-31T14:01:50.316Z,100808.72
2022-12-31T14:04:24.333Z,100813.13
2022-12-31T14:06:59.739Z,100808.31
2022-12-31T14:09:29.298Z,100799.94
2022-12-31T14:12:02.622Z,100796.78
2022-12-31T14:14:42.268Z,100798.34
2022-12-31T14:17:39.162Z,100803.53
2022-12-31T14:20:15.232Z,100805.03
2022-12-31T14:23:11.629Z,100810.88
2022-12-31T14:25:51.732Z,100807.91
2022-12-31T14:28:24.830Z,100806.19
2022-12-31T14:31:19.020Z,100815.88
2022-12-31T14:34:15.893Z,100809.41
2022-12-31T14:36:57.442Z,100818.12
2022-12-31T14:39:51.247Z,100826.53
2022-12-31T14:42:29.579Z,100815.75
2022-12-31T14:45:04.145Z,100803.59
2022-12-31T14:47:41.383Z,100812.78
2022-12-31T14:50:14.764Z,100814.84
2022-12-31T14:52:55.196Z,100815.72
2022-12-31T14:55:24.915Z,100814.28
2022-12-31T14:58:26.432Z,100815.12
2022-12-31T15:01:11.072Z,100818.25
2022-12-31T15:03:45.459Z,100824.69
2022-12-31T15:06:22.593Z,100821.31
2022-12-31T15:09:15.131Z,100832.12
2022-12-31T15:11:59.146Z,100834.13
2022-12-31T15:14:54.758Z,100838.56
2022-12-31T15:17:27.883Z,100839.12
2022-12-31T15:20:17.614Z,100838.84
2022-12-31T15:22:47.327Z,100831.00
2022-12-31T15:25:40.801Z,100829.34
2022-12-31T15:28:26.738Z,100827.25
2022-12-31T15:30:59.088Z,100831.00
2022-12-31T15:33:33.784Z,100823.81
2022-12-31T15:36:23.879Z,100824.63
2022-12-31T15:38:51.570Z,100838.25
2022-12-31T15:41:19.663Z,100832.00
2022-12-31T15:44:12.516Z,100831.38
2022-12-31T15:46:41.696Z,100834.75
2022-12-31T15:49:18.183Z,100836.41
2022-12-31T15:51:56.552Z,100832.47
2022-12-31T15:54:39.805Z,100831.59
2022-12-31T15:57:14.616Z,100844.47
2022-12-31T15:59:42.375Z,100841.06
2022-12-31T16:02:20.337Z,100830.69
2022-12-31T16:04:48.857Z,100831.28
2022-12-31T16:07:17.187Z,100835.31
2022-12-31T16:09:50.802Z,100845.72
2022-12-31T16:12:34.433Z,100843.19
2022-12-31T16:15:04.061Z,100836.19
2022-12-31T16:17:36.750Z,100854.31
2022-12-31T16:20:25.484Z,100844.19
2022-12-31T16:22:56.281Z,100852.56
2022-12-31T16:25:33.032Z,100849.44
2022-12-31T16:28:02.860Z,100852.78
2022-12-31T16:30:32.102Z,100845.53
2022-12-31T16:33:03.268Z,100838.84
2022-12-31T16:35:33.311Z,100845.41
2022-12-31T16:38:15.186Z,100839.50
2022-12-31T16:40:46.804Z,100836.63
2022-12-31T16:43:43.600Z,100839.16
2022-12-31T16:46:27.081Z,100847.56
2022-12-31T16:49:16.040Z,100850.22
2022-12-31T16:51:45.924Z,100847.00
2022-12-31T16:54:31.925Z,100843.69
2022-12-31T16:57:00.304Z,100845.25
2022-12-31T16:59:34.881Z,100841.72
2022-12-31T17:02:05.215Z,100833.13
2022-12-31T17:04:32.702Z,100839.75
2022-12-31T17:07:24.862Z,100845.72
2022-12-31T17:10:04.779Z,100840.19
2022-12-31T17:13:00.617Z,100841.22
2022-12-31T17:15:26.620Z,100842.22
2022-12-31T17:17:57.521Z,100829.72
2022-12-31T17:20:30.128Z,100839.12
2022-12-31T17:23:07.959Z,100829.69
2022-12-31T17:25:38.805Z,100828.19
2022-12-31T17:28:19.413Z,100843.06
2022-12-31T17:30:47.164Z,100851.31
2022-12-31T17:33:14.461Z,100850.19
2022-12-31T17:35:43.814Z,100867.31
2022-12-31T17:38:32.557Z,100870.59
2022-12-31T17:41:06.157Z,100874.94
2022-12-31T17:43:35.849Z,100877.50
2022-12-31T17:46:23.951Z,100870.94
2022-12-31T17:49:01.570Z,100884.78
2022-12-31T17:51:29.069Z,100869.91
2022-12-31T17:53:59.852Z,100870.00
2022-12-31T17:56:27.276Z,100868.81
2022-12-31T17:58:54.832Z,100874.28
2022-12-31T18:01:23.533Z,100879.47
2022-12-31T18:03:51.607Z,100871.59
2022-12-31T18:06:19.598Z,100870.63
2022-12-31T18:08:47.341Z,100866.31
2022-12-31T18:11:25.478Z,100878.97
2022-12-31T18:13:53.307Z,100866.03
2022-12-31T18:16:21.005Z,100876.91
2022-12-31T18:18:48.459Z,100858.88
2022-12-31T18:21:20.240Z,100872.22
2022-12-31T18:23:48.612Z,100872.34
2022-12-31T18:26:18.318Z,100869.09
2022-12-31T18:28:45.992Z,100876.97
2022-12-31T18:31:17.638Z,100869.47
2022-12-31T18:33:45.276Z,100858.03
2022-12-31T18:36:17.525Z,100860.31
2022-12-31T18:38:45.793Z,100860.59
2022-12-31T18:41:29.329Z,100872.16
2022-12-31T18:43:57.027Z,100878.28
2022-12-31T18:46:24.958Z,100865.53
2022-12-31T18:48:52.355Z,100879.44
2022-12-31T18:51:26.453Z,100873.50
2022-12-31T18:53:59.816Z,100870.38
2022-12-31T18:56:28.074Z,100878.41
2022-12-31T18:58:55.564Z,100894.69
2022-12-31T19:01:38.340Z,100893.38
2022-12-31T19:04:22.802Z,100904.19
2022-12-31T19:06:54.362Z,100894.87
2022-12-31T19:12:13.144Z,100897.44
2022-12-31T19:14:40.914Z,100905.31
2022-12-31T19:19:34.994Z,100905.53
2022-12-31T19:22:02.976Z,100916.34
2022-12-31T19:24:30.549Z,100900.91
2022-12-31T19:26:57.923Z,100907.31
2022-12-31T19:29:27.308Z,100897.84
2022-12-31T19:31:54.961Z,100905.91
2022-12-31T19:34:22.358Z,100912.78
2022-12-31T19:36:50.004Z,100906.41
2022-12-31T19:39:20.193Z,100907.00
2022-12-31T19:41:52.991Z,100901.22
2022-12-31T19:44:28.076Z,100911.06
2022-12-31T19:46:55.466Z,100898.28
2022-12-31T19:49:24.144Z,100899.81
2022-12-31T19:51:51.900Z,100899.56
2022-12-31T19:54:19.295Z,100891.34
2022-12-31T19:56:46.728Z,100898.50
2022-12-31T19:59:14.447Z,100886.16
2022-12-31T20:01:42.151Z,100889.62
2022-12-31T20:04:09.930Z,100887.25
2022-12-31T20:06:37.342Z,100886.91
2022-12-31T20:09:04.783Z,100893.19
2022-12-31T20:11:32.486Z,100888.75
2022-12-31T20:13:59.896Z,100892.69
2022-12-31T20:16:29.699Z,100885.09
2022-12-31T20:18:57.498Z,100876.91
2022-12-31T20:21:27.605Z,100877.03
2022-12-31T20:23:55.291Z,100876.63
2022-12-31T20:26:24.091Z,100871.03
2022-12-31T20:28:52.516Z,100877.63
2022-12-31T20:31:22.970Z,100873.16
2022-12-31T20:33:50.810Z,100869.94
2022-12-31T20:36:18.260Z,100876.47
2022-12-31T20:38:45.829Z,100876.75
2022-12-31T20:41:16.275Z,100876.63
2022-12-31T20:43:44.267Z,100869.84
2022-12-31T20:46:15.746Z,100867.03
2022-12-31T20:48:45.130Z,100867.97
2022-12-31T20:51:13.752Z,100871.34
2022-12-31T20:53:49.058Z,100870.87
2022-12-31T20:56:16.900Z,100872.09
2022-12-31T20:58:44.500Z,100872.62
2022-12-31T21:01:12.529Z,100871.53
2022-12-31T21:06:30.428Z,100870.44
2022-12-31T21:08:59.789Z,100875.75
2022-12-31T21:11:45.826Z,100877.72
2022-12-31T21:14:13.586Z,100883.19
2022-12-31T21:16:41.006Z,100886.09
2022-12-31T21:19:09.000Z,100876.88
2022-12-31T21:21:36.990Z,100873.56
2022-12-31T21:24:04.670Z,100886.53
2022-12-31T21:26:32.329Z,100886.94
2022-12-31T21:29:00.131Z,100893.44
2022-12-31T21:31:27.768Z,100887.06
2022-12-31T21:33:55.405Z,100888.94
2022-12-31T21:36:23.098Z,100909.41
2022-12-31T21:38:50.549Z,100901.91
2022-12-31T21:41:36.915Z,100915.81
2022-12-31T21:44:04.666Z,100915.72
2022-12-31T21:46:32.143Z,100926.09
2022-12-31T21:49:00.216Z,100922.00
2022-12-31T21:51:29.942Z,100926.88
2022-12-31T21:53:57.837Z,100905.69
2022-12-31T21:56:25.268Z,100919.31
2022-12-31T21:59:16.374Z,100909.78
2022-12-31T22:02:02.462Z,100910.47
2022-12-31T22:07:17.836Z,100928.19
2022-12-31T22:09:46.083Z,100931.63
2022-12-31T22:12:13.493Z,100930.56
2022-12-31T22:15:15.193Z,100932.19
2022-12-31T22:17:28.796Z,100930.66
2022-12-31T22:22:43.932Z,100928.44
2022-12-31T22:25:11.373Z,100913.84
2022-12-31T22:27:38.871Z,100916.81
2022-12-31T22:30:07.396Z,100913.94
2022-12-31T22:32:35.191Z,100912.84
2022-12-31T22:35:02.581Z,100928.09
2022-12-31T22:40:17.864Z,100914.78
2022-12-31T22:42:45.583Z,100923.97
2022-12-31T22:45:12.968Z,100923.78
2022-12-31T22:47:40.660Z,100918.41
2022-12-31T22:50:08.807Z,100931.63
2022-12-31T22:52:36.185Z,100916.81
2022-12-31T22:55:03.850Z,100910.09
2022-12-31T22:57:31.527Z,100920.59
2022-12-31T22:59:58.979Z,100915.00
2022-12-31T23:02:26.477Z,100903.09
2022-12-31T23:04:54.255Z,100904.50
2022-12-31T23:07:41.661Z,100904.25
2022-12-31T23:10:29.444Z,100908.72
2022-12-31T23:12:56.861Z,100916.34
2022-12-31T23:15:43.291Z,100912.63
2022-12-31T23:18:29.185Z,100907.41
2022-12-31T23:21:15.392Z,100909.66
2022-12-31T23:23:42.773Z,100900.88
2022-12-31T23:26:10.551Z,100906.16
2022-12-31T23:28:38.047Z,100913.94
2022-12-31T23:31:06.543Z,100899.31
2022-12-31T23:33:34.311Z,100908.44
2022-12-31T23:36:05.845Z,100901.22
2022-12-31T23:38:33.571Z,100900.31
2022-12-31T23:41:01.139Z,100914.16
2022-12-31T23:43:28.582Z,100919.59
2022-12-31T23:45:56.260Z,100916.13
2022-12-31T23:48:23.717Z,100914.75
2022-12-31T23:50:53.837Z,100926.69
2022-12-31T23:53:25.551Z,100914.50
2022-12-31T23:55:53.298Z,100920.41
2022-12-31T23:58:21.347Z,100924.31
